Time;durP1;ratioP1;P1;durP2;ratioP2;P2;SDS_P1;SDS_P2;PMS_P1;PMS_P2;Temp;Humidity;BMP_temperature;BMP_pressure;BME280_temperature;BME280_humidity;BME280_pressure;Samples;Min_cycle;Max_cycle;Signal;HPM_P1;HPM_P2
2021/04/28 00:00:32;;;;;;;1999.90;999.90;;;9.70;29.80;;;;;;5066160;28;20055;-72
2021/04/28 00:03:00;;;;;;;1999.90;999.90;;;9.70;29.80;;;;;;5059501;28;20127;-72
2021/04/28 00:05:26;;;;;;;1999.90;999.90;;;9.70;29.90;;;;;;5068008;28;20054;-72
2021/04/28 00:07:53;;;;;;;1999.90;999.90;;;9.70;29.90;;;;;;5063926;28;20511;-72
2021/04/28 00:10:23;;;;;;;1999.90;999.90;;;9.60;29.90;;;;;;5061365;28;20048;-72
2021/04/28 00:12:49;;;;;;;1999.90;999.90;;;9.60;29.90;;;;;;5067093;28;20080;-72
2021/04/28 00:15:19;;;;;;;1999.90;999.90;;;9.60;30.00;;;;;;5071268;28;20119;-72
2021/04/28 00:17:47;;;;;;;1999.90;999.90;;;9.50;30.10;;;;;;5066422;28;20434;-73
2021/04/28 00:20:17;;;;;;;1999.90;999.90;;;9.50;30.00;;;;;;5063385;28;20055;-72
2021/04/28 00:22:44;;;;;;;1999.90;999.90;;;9.40;30.00;;;;;;5066600;28;20045;-72
2021/04/28 00:25:14;;;;;;;1999.90;999.90;;;9.40;30.00;;;;;;5071986;28;20571;-72
2021/04/28 00:27:40;;;;;;;1999.90;999.90;;;9.30;30.00;;;;;;5063395;28;20384;-72
2021/04/28 00:30:10;;;;;;;1999.90;999.90;;;9.30;29.90;;;;;;5069121;28;20050;-72
2021/04/28 00:32:38;;;;;;;1999.90;999.90;;;9.30;30.00;;;;;;5065179;28;20037;-73
2021/04/28 00:35:10;;;;;;;1999.90;999.90;;;9.30;30.00;;;;;;5069788;28;20132;-73
2021/04/28 00:37:38;;;;;;;1999.90;999.90;;;9.20;30.00;;;;;;5065783;28;20044;-72
2021/04/28 00:40:10;;;;;;;1999.90;999.90;;;9.20;30.00;;;;;;5088289;28;20142;-72
2021/04/28 00:42:36;;;;;;;1999.90;999.90;;;9.10;30.20;;;;;;5065275;28;20051;-72
2021/04/28 00:45:04;;;;;;;1999.90;999.90;;;9.00;30.20;;;;;;5076201;28;20528;-72
2021/04/28 00:47:30;;;;;;;1999.90;999.90;;;9.00;30.20;;;;;;5070361;28;20435;-72
2021/04/28 00:49:57;;;;;;;1999.90;999.90;;;8.90;30.30;;;;;;5067018;28;20109;-72
2021/04/28 00:52:24;;;;;;;1999.90;999.90;;;8.90;30.30;;;;;;5068399;28;20048;-72
2021/04/28 00:54:51;;;;;;;1999.90;999.90;;;8.80;30.30;;;;;;5067355;28;20051;-72
2021/04/28 00:57:17;;;;;;;1999.90;999.90;;;8.80;30.30;;;;;;5069139;28;20465;-72
2021/04/28 00:59:45;;;;;;;1999.90;999.90;;;8.80;30.50;;;;;;5071348;28;20037;-72
2021/04/28 01:02:11;;;;;;;1999.90;999.90;;;8.70;30.50;;;;;;5072456;28;20072;-73
2021/04/28 01:04:38;;;;;;;1999.90;999.90;;;8.70;30.60;;;;;;5068493;28;20070;-72
2021/04/28 01:07:06;;;;;;;1999.90;999.90;;;8.60;30.50;;;;;;5057607;28;20127;-72
2021/04/28 01:09:34;;;;;;;1999.90;999.90;;;8.60;30.40;;;;;;5070590;28;20089;-72
2021/04/28 01:12:03;;;;;;;1999.90;999.90;;;8.60;30.50;;;;;;5069636;28;20047;-72
2021/04/28 01:14:31;;;;;;;1999.90;999.90;;;8.60;30.80;;;;;;5061893;28;20080;-72
2021/04/28 01:16:58;;;;;;;1999.90;999.90;;;8.60;30.50;;;;;;5065499;28;20041;-73
2021/04/28 01:19:26;;;;;;;1999.90;999.90;;;8.50;30.40;;;;;;5067330;28;20488;-72
2021/04/28 01:21:53;;;;;;;1999.90;999.90;;;8.50;30.50;;;;;;5071017;28;20399;-72
2021/04/28 01:24:20;;;;;;;1999.90;999.90;;;8.50;30.50;;;;;;5060036;28;20509;-73
2021/04/28 01:26:51;;;;;;;1999.90;999.90;;;8.50;31.20;;;;;;5060344;28;20052;-72
2021/04/28 01:29:23;;;;;;;1999.90;999.90;;;8.40;30.70;;;;;;5065710;28;20052;-72
2021/04/28 01:31:50;;;;;;;1999.90;999.90;;;8.40;30.70;;;;;;5070375;28;20055;-72
2021/04/28 01:34:18;;;;;;;1999.90;999.90;;;8.30;30.80;;;;;;5063743;28;20052;-73
2021/04/28 01:36:45;;;;;;;1999.90;999.90;;;8.30;30.80;;;;;;5084898;28;20044;-72
2021/04/28 01:39:16;;;;;;;1999.90;999.90;;;8.20;31.00;;;;;;5066206;28;20542;-72
2021/04/28 01:41:47;;;;;;;1999.90;999.90;;;8.20;31.00;;;;;;5068526;28;20167;-72
2021/04/28 01:44:21;;;;;;;1999.90;999.90;;;8.20;31.20;;;;;;5066455;28;20044;-73
2021/04/28 01:46:48;;;;;;;1999.90;999.90;;;8.10;31.10;;;;;;5065542;28;20142;-72
2021/04/28 01:49:16;;;;;;;1999.90;999.90;;;8.10;31.10;;;;;;5069249;28;20155;-72
2021/04/28 01:51:43;;;;;;;1999.90;999.90;;;8.10;31.10;;;;;;5066372;28;20135;-73
2021/04/28 01:54:14;;;;;;;1999.90;999.90;;;8.00;31.10;;;;;;5063437;28;20045;-72
2021/04/28 01:56:43;;;;;;;1999.90;999.90;;;8.00;31.00;;;;;;5065022;28;20048;-72
2021/04/28 01:59:13;;;;;;;1999.90;999.90;;;8.00;31.00;;;;;;5067304;28;20048;-72
2021/04/28 02:01:43;;;;;;;1999.90;999.90;;;8.00;31.30;;;;;;5070312;28;20041;-72
2021/04/28 02:04:10;;;;;;;1999.90;999.90;;;8.00;31.30;;;;;;5061646;28;20051;-72
2021/04/28 02:06:40;;;;;;;1999.90;999.90;;;8.00;31.30;;;;;;5068289;28;20123;-72
2021/04/28 02:09:06;;;;;;;1999.90;999.90;;;7.90;31.20;;;;;;5058889;28;20068;-71
2021/04/28 02:11:33;;;;;;;1999.90;999.90;;;7.90;31.20;;;;;;5063846;28;20053;-71
2021/04/28 02:14:01;;;;;;;1999.90;999.90;;;7.90;31.20;;;;;;5066197;28;20048;-72
2021/04/28 02:16:28;;;;;;;1999.90;999.90;;;7.80;31.20;;;;;;5070246;28;20060;-71
2021/04/28 02:18:56;;;;;;;1999.90;999.90;;;7.90;31.00;;;;;;5062801;28;20048;-72
2021/04/28 02:21:22;;;;;;;1999.90;999.90;;;7.90;31.00;;;;;;5068643;28;20066;-72
2021/04/28 02:23:50;;;;;;;1999.90;999.90;;;7.90;30.90;;;;;;5061945;28;20049;-72
2021/04/28 02:26:16;;;;;;;1999.90;999.90;;;7.90;30.80;;;;;;5069904;28;20131;-71
2021/04/28 02:28:42;;;;;;;1999.90;999.90;;;7.80;30.80;;;;;;5061872;28;20055;-71
2021/04/28 02:31:08;;;;;;;1999.90;999.90;;;7.80;30.80;;;;;;5069569;28;20051;-72
2021/04/28 02:33:35;;;;;;;1999.90;999.90;;;7.80;30.60;;;;;;5065428;28;20049;-72
2021/04/28 02:36:02;;;;;;;1999.90;999.90;;;7.80;30.60;;;;;;5068406;28;20044;-72
2021/04/28 02:38:39;;;;;;;1999.90;999.90;;;7.80;30.60;;;;;;5058574;28;20417;-71
2021/04/28 02:41:06;;;;;;;1999.90;999.90;;;7.80;30.70;;;;;;5067468;28;20373;-72
2021/04/28 02:43:35;;;;;;;1999.90;999.90;;;7.70;30.60;;;;;;5064393;28;20053;-72
2021/04/28 02:46:04;;;;;;;1999.90;999.90;;;7.60;30.70;;;;;;5065204;28;20056;-73
2021/04/28 02:48:32;;;;;;;1999.90;999.90;;;7.60;30.80;;;;;;5064834;28;20049;-72
2021/04/28 02:50:59;;;;;;;1999.90;999.90;;;7.50;31.20;;;;;;5060576;28;20395;-72
2021/04/28 02:53:27;;;;;;;1999.90;999.90;;;7.50;31.00;;;;;;5064830;28;20060;-73
2021/04/28 02:55:56;;;;;;;1999.90;999.90;;;7.40;31.10;;;;;;5065218;28;20041;-72
2021/04/28 02:58:23;;;;;;;1999.90;999.90;;;7.30;31.10;;;;;;5063560;28;20307;-72
2021/04/28 03:00:52;;;;;;;1999.90;999.90;;;7.30;31.10;;;;;;5065374;28;20117;-72
2021/04/28 03:03:19;;;;;;;1999.90;999.90;;;7.20;31.30;;;;;;5066193;28;20135;-72
2021/04/28 03:05:53;;;;;;;1999.90;999.90;;;7.10;31.20;;;;;;5065831;28;20150;-72
2021/04/28 03:08:22;;;;;;;1999.90;999.90;;;7.00;31.20;;;;;;5066093;28;20140;-72
2021/04/28 03:10:49;;;;;;;1999.90;999.90;;;7.00;31.30;;;;;;5059093;28;20044;-72
2021/04/28 03:13:16;;;;;;;1999.90;999.90;;;7.00;31.30;;;;;;5067071;28;20051;-71
2021/04/28 03:15:43;;;;;;;1999.90;999.90;;;7.00;31.30;;;;;;5064666;28;20040;-72
2021/04/28 03:18:12;;;;;;;1999.90;999.90;;;6.90;31.30;;;;;;5066951;28;20051;-73
2021/04/28 03:20:41;;;;;;;1999.90;999.90;;;6.90;31.40;;;;;;5065821;28;20121;-73
2021/04/28 03:23:12;;;;;;;1999.90;999.90;;;6.90;31.40;;;;;;5067045;28;20055;-72
2021/04/28 03:25:43;;;;;;;1999.90;999.90;;;6.90;31.30;;;;;;5065389;28;20067;-71
2021/04/28 03:28:09;;;;;;;1999.90;999.90;;;6.80;31.60;;;;;;5063177;28;20061;-71
2021/04/28 03:30:37;;;;;;;1999.90;999.90;;;6.80;31.40;;;;;;5056853;28;20095;-71
2021/04/28 03:33:03;;;;;;;1999.90;999.90;;;6.70;31.30;;;;;;5066211;28;20135;-72
2021/04/28 03:35:31;;;;;;;1999.90;999.90;;;6.70;31.40;;;;;;5068468;28;20098;-72
2021/04/28 03:37:57;;;;;;;1999.90;999.90;;;6.70;31.50;;;;;;5062533;28;20271;-71
2021/04/28 03:40:23;;;;;;;1999.90;999.90;;;6.70;31.40;;;;;;5062241;28;20055;-72
2021/04/28 03:42:50;;;;;;;1999.90;999.90;;;6.60;31.40;;;;;;5078330;28;20123;-72
2021/04/28 03:45:16;;;;;;;1999.90;999.90;;;6.70;31.50;;;;;;5077781;28;20124;-71
2021/04/28 03:47:42;;;;;;;1999.90;999.90;;;6.60;31.50;;;;;;5067802;28;20110;-71
2021/04/28 03:50:10;;;;;;;1999.90;999.90;;;6.60;31.40;;;;;;5068318;28;20037;-73
2021/04/28 03:52:38;;;;;;;1999.90;999.90;;;6.60;31.90;;;;;;5064869;28;20127;-71
2021/04/28 03:55:06;;;;;;;1999.90;999.90;;;6.50;31.50;;;;;;5073030;28;20041;-73
2021/04/28 03:57:33;;;;;;;1999.90;999.90;;;6.50;31.50;;;;;;5066203;28;20463;-73
2021/04/28 04:00:00;;;;;;;1999.90;999.90;;;6.50;31.40;;;;;;5071616;28;20450;-71
2021/04/28 04:02:26;;;;;;;1999.90;999.90;;;6.50;31.40;;;;;;5066972;28;20061;-72
2021/04/28 04:04:53;;;;;;;1999.90;999.90;;;6.50;31.50;;;;;;5067720;28;20045;-71
2021/04/28 04:07:19;;;;;;;1999.90;999.90;;;6.50;31.50;;;;;;5069620;28;20549;-72
2021/04/28 04:09:46;;;;;;;1999.90;999.90;;;6.50;31.50;;;;;;5071992;28;20179;-72
2021/04/28 04:12:12;;;;;;;1999.90;999.90;;;6.50;31.60;;;;;;5067203;28;20535;-72
2021/04/28 04:14:38;;;;;;;1999.90;999.90;;;6.40;31.50;;;;;;5069536;28;20055;-72
2021/04/28 04:17:04;;;;;;;1999.90;999.90;;;6.40;31.60;;;;;;5067711;28;20071;-72
2021/04/28 04:19:31;;;;;;;1999.90;999.90;;;6.40;31.90;;;;;;5067857;28;20512;-72
2021/04/28 04:22:00;;;;;;;1999.90;999.90;;;6.30;31.60;;;;;;5070532;28;20041;-72
2021/04/28 04:24:27;;;;;;;1999.90;999.90;;;6.30;31.80;;;;;;5069752;28;20140;-73
2021/04/28 04:26:53;;;;;;;1999.90;999.90;;;6.30;32.40;;;;;;5071062;28;20048;-71
2021/04/28 04:29:19;;;;;;;1999.90;999.90;;;6.30;31.90;;;;;;5062403;28;20587;-72
2021/04/28 04:31:45;;;;;;;1999.90;999.90;;;6.30;32.00;;;;;;5066956;28;20044;-71
2021/04/28 04:34:11;;;;;;;1999.90;999.90;;;6.20;31.90;;;;;;5078729;28;20138;-71
2021/04/28 04:36:38;;;;;;;1999.90;999.90;;;6.20;32.10;;;;;;5070283;28;20127;-72
2021/04/28 04:39:05;;;;;;;1999.90;999.90;;;6.30;32.30;;;;;;5071975;28;20123;-71
2021/04/28 04:41:33;;;;;;;1999.90;999.90;;;6.20;32.40;;;;;;5068101;28;20491;-72
2021/04/28 04:43:59;;;;;;;1999.90;999.90;;;6.20;32.40;;;;;;5066859;28;20415;-72
2021/04/28 04:46:26;;;;;;;1999.90;999.90;;;6.20;32.40;;;;;;5062429;28;20118;-71
2021/04/28 04:48:52;;;;;;;1999.90;999.90;;;6.20;32.60;;;;;;5063448;28;20450;-72
2021/04/28 04:51:19;;;;;;;1999.90;999.90;;;6.20;32.70;;;;;;5064871;28;20145;-73
2021/04/28 04:53:45;;;;;;;1999.90;999.90;;;6.20;32.60;;;;;;5068094;28;20429;-71
2021/04/28 04:56:11;;;;;;;1999.90;999.90;;;6.30;32.80;;;;;;5070324;28;20036;-71
2021/04/28 04:58:38;;;;;;;1999.90;999.90;;;6.30;32.70;;;;;;5069886;28;20072;-72
2021/04/28 05:01:04;;;;;;;1999.90;999.90;;;6.40;32.80;;;;;;5068149;28;20147;-72
2021/04/28 05:03:31;;;;;;;1999.90;999.90;;;6.40;33.00;;;;;;5069947;28;20044;-72
2021/04/28 05:05:57;;;;;;;1999.90;999.90;;;6.40;33.50;;;;;;5070014;28;20048;-72
2021/04/28 05:08:24;;;;;;;1999.90;999.90;;;6.50;33.60;;;;;;5069726;28;20131;-72
2021/04/28 05:10:50;;;;;;;1999.90;999.90;;;6.50;33.50;;;;;;5069710;28;20406;-72
2021/04/28 05:13:16;;;;;;;1999.90;999.90;;;6.50;33.50;;;;;;5069890;28;20049;-73
2021/04/28 05:15:42;;;;;;;1999.90;999.90;;;6.50;33.60;;;;;;5069260;28;20044;-73
2021/04/28 05:18:09;;;;;;;1999.90;999.90;;;6.50;34.00;;;;;;5069722;28;20040;-72
2021/04/28 05:20:35;;;;;;;1999.90;999.90;;;6.60;34.00;;;;;;5069617;28;20135;-71
2021/04/28 05:23:02;;;;;;;1999.90;999.90;;;6.60;34.10;;;;;;5070584;28;20051;-73
2021/04/28 05:25:29;;;;;;;1999.90;999.90;;;6.70;33.90;;;;;;5070805;28;20491;-72
2021/04/28 05:27:55;;;;;;;1999.90;999.90;;;6.80;34.20;;;;;;5067581;28;20495;-72
2021/04/28 05:30:25;;;;;;;1999.90;999.90;;;6.80;34.50;;;;;;5069012;28;20456;-72
2021/04/28 05:32:51;;;;;;;1999.90;999.90;;;6.90;34.20;;;;;;5069353;28;20131;-73
2021/04/28 05:35:18;;;;;;;1999.90;999.90;;;7.00;34.50;;;;;;5070941;28;20131;-72
2021/04/28 05:37:45;;;;;;;1999.90;999.90;;;7.10;34.30;;;;;;5062999;28;20129;-72
2021/04/28 05:40:11;;;;;;;1999.90;999.90;;;7.10;34.30;;;;;;5067140;28;20086;-72
2021/04/28 05:42:38;;;;;;;1999.90;999.90;;;7.20;35.30;;;;;;5069494;28;20479;-72
2021/04/28 05:45:06;;;;;;;1999.90;999.90;;;7.30;34.80;;;;;;5070264;28;20127;-71
2021/04/28 05:47:33;;;;;;;1999.90;999.90;;;7.30;34.40;;;;;;5066365;28;20059;-72
2021/04/28 05:49:59;;;;;;;1999.90;999.90;;;7.30;34.80;;;;;;5048996;28;20048;-72
2021/04/28 05:52:25;;;;;;;1999.90;999.90;;;7.30;34.50;;;;;;5054901;28;20132;-72
2021/04/28 05:54:52;;;;;;;1999.90;999.90;;;7.20;34.50;;;;;;5048023;28;20091;-72
2021/04/28 05:57:32;;;;;;;1999.90;999.90;;;7.20;34.30;;;;;;5056004;28;20393;-71
2021/04/28 05:59:59;;;;;;;1999.90;999.90;;;7.10;34.30;;;;;;5049619;28;20968;-73
2021/04/28 06:02:26;;;;;;;1999.90;999.90;;;7.10;34.30;;;;;;5053959;28;20511;-72
2021/04/28 06:04:52;;;;;;;1999.90;999.90;;;7.00;34.30;;;;;;5051404;28;20057;-72
2021/04/28 06:07:19;;;;;;;1999.90;999.90;;;7.00;34.40;;;;;;5055018;28;20135;-72
2021/04/28 06:09:45;;;;;;;1999.90;999.90;;;7.00;34.20;;;;;;5058937;28;20075;-72
2021/04/28 06:12:11;;;;;;;1999.90;999.90;;;7.00;34.30;;;;;;5095250;28;20151;-73
2021/04/28 06:14:38;;;;;;;1999.90;999.90;;;7.00;34.40;;;;;;5068766;28;20048;-72
2021/04/28 06:17:06;;;;;;;1999.90;999.90;;;7.00;34.40;;;;;;5063431;28;20385;-72
2021/04/28 06:19:35;;;;;;;1999.90;999.90;;;7.00;34.40;;;;;;5068055;28;20053;-72
2021/04/28 06:22:01;;;;;;;1999.90;999.90;;;7.00;34.60;;;;;;5067293;28;20040;-72
2021/04/28 06:24:34;;;;;;;1999.90;999.90;;;7.10;34.70;;;;;;5068746;28;20055;-72
2021/04/28 06:27:00;;;;;;;1999.90;999.90;;;7.20;34.70;;;;;;5066711;28;20415;-72
2021/04/28 06:29:27;;;;;;;1999.90;999.90;;;7.30;34.90;;;;;;5067742;28;20052;-72
2021/04/28 06:31:53;;;;;;;1999.90;999.90;;;7.40;35.00;;;;;;5068987;28;20135;-72
2021/04/28 06:34:19;;;;;;;1999.90;999.90;;;7.50;35.20;;;;;;5068265;28;20036;-72
2021/04/28 06:36:45;;;;;;;1999.90;999.90;;;7.60;35.30;;;;;;5065835;28;20045;-72
2021/04/28 06:39:11;;;;;;;1999.90;999.90;;;7.70;35.40;;;;;;5068348;28;20045;-73
2021/04/28 06:41:38;;;;;;;1999.90;999.90;;;7.80;36.40;;;;;;5067875;28;20083;-72
2021/04/28 06:44:05;;;;;;;1999.90;999.90;;;7.90;35.50;;;;;;5068059;28;20094;-72
2021/04/28 06:46:32;;;;;;;1999.90;999.90;;;8.00;35.90;;;;;;5069007;28;20476;-72
2021/04/28 06:48:58;;;;;;;1999.90;999.90;;;8.20;36.00;;;;;;5068103;28;20139;-73
2021/04/28 06:51:25;;;;;;;1999.90;999.90;;;8.30;35.90;;;;;;5068143;28;20055;-72
2021/04/28 06:53:54;;;;;;;1999.90;999.90;;;8.50;36.20;;;;;;5066988;28;20066;-72
2021/04/28 06:56:21;;;;;;;1999.90;999.90;;;8.70;36.60;;;;;;5068118;28;20123;-72
2021/04/28 06:58:49;;;;;;;1999.90;999.90;;;9.00;36.90;;;;;;5066351;28;20049;-73
2021/04/28 07:01:15;;;;;;;1999.90;999.90;;;9.20;37.00;;;;;;5066978;28;20141;-72
2021/04/28 07:03:42;;;;;;;1999.90;999.90;;;9.40;37.00;;;;;;5066118;28;20228;-72
2021/04/28 07:06:11;;;;;;;1999.90;999.90;;;9.70;37.30;;;;;;5068572;28;20041;-72
2021/04/28 07:08:38;;;;;;;1999.90;999.90;;;9.80;37.30;;;;;;5066689;28;20124;-72
2021/04/28 07:11:05;;;;;;;1999.90;999.90;;;9.90;37.10;;;;;;5067615;28;20407;-72
2021/04/28 07:13:32;;;;;;;1999.90;999.90;;;10.00;36.00;;;;;;5066606;28;20128;-72
2021/04/28 07:15:59;;;;;;;1999.90;999.90;;;10.00;35.80;;;;;;5068125;28;20132;-72
2021/04/28 07:18:25;;;;;;;1999.90;999.90;;;10.00;35.80;;;;;;5066977;28;20314;-72
2021/04/28 07:20:52;;;;;;;1999.90;999.90;;;10.00;35.70;;;;;;5066918;28;20053;-72
2021/04/28 07:23:19;;;;;;;1999.90;999.90;;;10.00;35.80;;;;;;5067040;28;20045;-72
2021/04/28 07:25:45;;;;;;;1999.90;999.90;;;10.10;36.00;;;;;;5067916;28;20044;-73
2021/04/28 07:28:11;;;;;;;1999.90;999.90;;;10.10;36.20;;;;;;5067249;28;20091;-71
2021/04/28 07:30:38;;;;;;;1999.90;999.90;;;10.30;36.00;;;;;;5068187;28;20052;-72
2021/04/28 07:33:05;;;;;;;1999.90;999.90;;;10.40;36.10;;;;;;5067998;28;20052;-72
2021/04/28 07:35:31;;;;;;;1999.90;999.90;;;10.60;36.20;;;;;;5067086;28;20135;-72
2021/04/28 07:37:57;;;;;;;1999.90;999.90;;;10.80;36.40;;;;;;5066481;28;20044;-72
2021/04/28 07:40:23;;;;;;;1999.90;999.90;;;10.90;36.40;;;;;;5067177;28;20066;-72
2021/04/28 07:42:50;;;;;;;1999.90;999.90;;;11.00;36.30;;;;;;5067060;28;20404;-73
2021/04/28 07:45:19;;;;;;;1999.90;999.90;;;11.00;36.40;;;;;;5067179;28;20044;-72
2021/04/28 07:47:46;;;;;;;1999.90;999.90;;;11.10;36.20;;;;;;5066136;28;20520;-73
2021/04/28 07:50:15;;;;;;;1999.90;999.90;;;11.20;36.60;;;;;;5068390;28;20045;-72
2021/04/28 07:52:42;;;;;;;1999.90;999.90;;;11.30;36.50;;;;;;5066723;28;20385;-73
2021/04/28 07:55:11;;;;;;;1999.90;999.90;;;11.50;36.70;;;;;;5068585;28;20041;-72
2021/04/28 07:57:37;;;;;;;1999.90;999.90;;;11.70;37.10;;;;;;5066986;28;20055;-72
2021/04/28 08:00:08;;;;;;;1999.90;999.90;;;11.80;36.90;;;;;;5068907;28;20088;-72
2021/04/28 08:02:34;;;;;;;1999.90;999.90;;;12.00;36.90;;;;;;5065997;28;20183;-72
2021/04/28 08:05:01;;;;;;;1999.90;999.90;;;12.20;37.10;;;;;;5068217;28;20079;-73
2021/04/28 08:07:27;;;;;;;1999.90;999.90;;;12.40;37.30;;;;;;5064327;28;20492;-73
2021/04/28 08:09:53;;;;;;;1999.90;999.90;;;12.50;37.00;;;;;;5061440;28;20195;-73
2021/04/28 08:12:19;;;;;;;1999.90;999.90;;;12.60;37.30;;;;;;5055359;28;20064;-72
2021/04/28 08:14:46;;;;;;;1999.90;999.90;;;12.70;37.20;;;;;;5064950;28;20060;-72
2021/04/28 08:17:12;;;;;;;1999.90;999.90;;;12.80;37.20;;;;;;5070610;28;20524;-72
2021/04/28 08:19:38;;;;;;;1999.90;999.90;;;12.90;37.50;;;;;;5064943;28;20045;-73
2021/04/28 08:22:05;;;;;;;1999.90;999.90;;;13.10;37.50;;;;;;5059248;28;20048;-72
2021/04/28 08:24:32;;;;;;;1999.90;999.90;;;13.10;37.60;;;;;;5065712;28;20474;-73
2021/04/28 08:26:58;;;;;;;1999.90;999.90;;;13.30;37.70;;;;;;5059672;28;20124;-72
2021/04/28 08:29:26;;;;;;;1999.90;999.90;;;13.50;37.70;;;;;;5058866;28;20139;-73
2021/04/28 08:31:52;;;;;;;1999.90;999.90;;;13.60;37.70;;;;;;5052946;28;20070;-73
2021/04/28 08:34:18;;;;;;;1999.90;999.90;;;13.80;38.00;;;;;;5068765;28;20040;-72
2021/04/28 08:36:45;;;;;;;1999.90;999.90;;;13.90;38.00;;;;;;5059352;28;20133;-73
2021/04/28 08:39:11;;;;;;;1999.90;999.90;;;14.10;38.00;;;;;;5072467;28;20047;-73
2021/04/28 08:41:38;;;;;;;1999.90;999.90;;;14.20;38.30;;;;;;5068769;28;20048;-73
2021/04/28 08:44:06;;;;;;;1999.90;999.90;;;14.30;38.30;;;;;;5070917;28;20048;-73
2021/04/28 08:46:35;;;;;;;1999.90;999.90;;;14.40;38.30;;;;;;5071021;28;20048;-72
2021/04/28 08:49:03;;;;;;;1999.90;999.90;;;14.40;38.00;;;;;;5070025;28;20060;-73
2021/04/28 08:51:29;;;;;;;1999.90;999.90;;;14.50;38.00;;;;;;5066865;28;20533;-73
2021/04/28 08:53:57;;;;;;;1999.90;999.90;;;14.60;38.10;;;;;;5068719;28;20127;-73
2021/04/28 08:56:24;;;;;;;1999.90;999.90;;;14.70;38.20;;;;;;5071054;28;20151;-73
2021/04/28 08:58:51;;;;;;;1999.90;999.90;;;14.90;38.30;;;;;;5068486;28;20072;-72
2021/04/28 09:01:29;;;;;;;1999.90;999.90;;;15.00;38.40;;;;;;5069956;28;20066;-73
2021/04/28 09:03:57;;;;;;;1999.90;999.90;;;15.20;38.40;;;;;;5068898;28;20411;-73
2021/04/28 09:06:24;;;;;;;1999.90;999.90;;;15.30;38.40;;;;;;5068165;28;20044;-73
2021/04/28 09:08:51;;;;;;;1999.90;999.90;;;15.30;38.20;;;;;;5070266;28;20056;-73
2021/04/28 09:11:37;;;;;;;1999.90;999.90;;;15.20;38.20;;;;;;5069313;28;20041;-73
2021/04/28 09:14:11;;;;;;;1999.90;999.90;;;15.00;38.60;;;;;;5066822;28;20041;-73
2021/04/28 09:16:39;;;;;;;1999.90;999.90;;;14.90;38.50;;;;;;5070144;28;20056;-73
2021/04/28 09:19:07;;;;;;;1999.90;999.90;;;14.90;38.80;;;;;;5070792;28;20048;-73
2021/04/28 09:21:51;;;;;;;1999.90;999.90;;;14.90;38.80;;;;;;5070246;28;20097;-72
2021/04/28 09:24:26;;;;;;;1999.90;999.90;;;14.90;38.70;;;;;;5093105;27;20049;-72
2021/04/28 09:26:55;;;;;;;1999.90;999.90;;;15.00;39.00;;;;;;5068672;28;20049;-73
2021/04/28 09:29:28;;;;;;;1999.90;999.90;;;15.20;39.40;;;;;;5067470;28;20059;-73
2021/04/28 09:32:02;;;;;;;1999.90;999.90;;;15.60;39.70;;;;;;5065323;28;20044;-73
2021/04/28 09:34:34;;;;;;;1999.90;999.90;;;15.90;40.20;;;;;;5066961;28;20048;-73
2021/04/28 09:37:09;;;;;;;1999.90;999.90;;;16.00;40.10;;;;;;5068376;28;20044;-72
2021/04/28 09:39:42;;;;;;;1999.90;999.90;;;16.10;40.20;;;;;;5066570;28;20403;-72
2021/04/28 09:42:10;;;;;;;1999.90;999.90;;;16.10;40.20;;;;;;5063942;28;20128;-73
2021/04/28 09:44:37;;;;;;;1999.90;999.90;;;16.10;40.10;;;;;;5069904;28;20158;-73
2021/04/28 09:47:14;;;;;;;1999.90;999.90;;;16.10;40.20;;;;;;5068793;28;20044;-73
2021/04/28 09:49:49;;;;;;;1999.90;999.90;;;16.10;40.10;;;;;;5069541;28;20382;-72
2021/04/28 09:52:23;;;;;;;1999.90;999.90;;;16.10;40.30;;;;;;5067165;28;20544;-73
2021/04/28 09:54:51;;;;;;;1999.90;999.90;;;16.10;40.20;;;;;;5070147;28;20377;-72
2021/04/28 09:57:32;;;;;;;1999.90;999.90;;;16.20;40.20;;;;;;5058217;28;20041;-73
2021/04/28 09:59:58;;;;;;;1999.90;999.90;;;16.20;40.20;;;;;;5065815;28;20052;-73
2021/04/28 10:02:31;;;;;;;1999.90;999.90;;;16.30;40.20;;;;;;5065813;28;20052;-72
2021/04/28 10:05:16;;;;;;;1999.90;999.90;;;16.30;40.20;;;;;;5069656;28;20456;-73
2021/04/28 10:08:10;;;;;;;1999.90;999.90;;;16.40;40.50;;;;;;5067379;28;20128;-73
2021/04/28 10:10:38;;;;;;;1999.90;999.90;;;16.40;41.10;;;;;;5066719;28;20037;-73
2021/04/28 10:13:05;;;;;;;1999.90;999.90;;;16.50;40.70;;;;;;5067188;28;20085;-73
2021/04/28 10:15:32;;;;;;;1999.90;999.90;;;16.50;40.70;;;;;;5067041;28;20059;-73
2021/04/28 10:18:03;;;;;;;1999.90;999.90;;;16.70;40.70;;;;;;5067357;28;20045;-74
2021/04/28 10:20:32;;;;;;;1999.90;999.90;;;16.80;40.80;;;;;;5068761;28;20052;-73
2021/04/28 10:23:09;;;;;;;1999.90;999.90;;;17.00;41.20;;;;;;5066408;28;20054;-72
2021/04/28 10:25:37;;;;;;;1999.90;999.90;;;17.40;41.20;;;;;;5067106;28;20051;-72
2021/04/28 10:28:09;;;;;;;1999.90;999.90;;;17.70;41.30;;;;;;5068361;28;20487;-72
2021/04/28 10:30:41;;;;;;;1999.90;999.90;;;18.00;41.50;;;;;;5068937;28;20106;-73
2021/04/28 10:33:14;;;;;;;1999.90;999.90;;;18.30;41.60;;;;;;5066295;28;20039;-72
2021/04/28 10:35:41;;;;;;;1999.90;999.90;;;18.50;42.20;;;;;;5068710;28;20116;-73
2021/04/28 10:38:07;;;;;;;1999.90;999.90;;;18.60;41.10;;;;;;5068969;28;20123;-73
2021/04/28 10:40:36;;;;;;;1999.90;999.90;;;18.60;41.50;;;;;;5069002;28;20045;-73
2021/04/28 10:43:10;;;;;;;1999.90;999.90;;;18.50;41.30;;;;;;5068423;28;20083;-72
2021/04/28 10:45:38;;;;;;;1999.90;999.90;;;18.50;41.30;;;;;;5066745;28;23062;-73
2021/04/28 10:48:40;;;;;;;1999.90;999.90;;;18.70;41.90;;;;;;5065801;28;20052;-73
2021/04/28 10:51:07;;;;;;;1999.90;999.90;;;19.00;42.10;;;;;;5063594;28;20056;-73
2021/04/28 10:53:33;;;;;;;1999.90;999.90;;;19.20;42.90;;;;;;5093593;27;20633;-72
2021/04/28 10:56:13;;;;;;;1999.90;999.90;;;19.50;43.60;;;;;;5066643;28;20628;-72
2021/04/28 10:58:44;;;;;;;1999.90;999.90;;;19.80;43.80;;;;;;5063104;28;20380;-72
2021/04/28 11:01:19;;;;;;;1999.90;999.90;;;20.00;44.30;;;;;;5066574;28;20047;-73
2021/04/28 11:03:51;;;;;;;1999.90;999.90;;;20.30;44.70;;;;;;5051983;28;20077;-73
2021/04/28 11:06:18;;;;;;;1999.90;999.90;;;20.60;45.50;;;;;;5061347;28;20123;-73
2021/04/28 11:08:45;;;;;;;1999.90;999.90;;;20.90;45.90;;;;;;5056863;28;20127;-73
2021/04/28 11:11:41;;;;;;;1999.90;999.90;;;21.10;46.20;;;;;;5061943;28;20131;-73
2021/04/28 11:16:45;;;;;;;1999.90;999.90;;;21.40;46.40;;;;;;5060185;28;20468;-73
2021/04/28 11:19:20;;;;;;;1999.90;999.90;;;21.50;46.10;;;;;;5060646;28;20047;-73
2021/04/28 11:22:06;;;;;;;1999.90;999.90;;;21.70;45.70;;;;;;5058187;28;20053;-73
2021/04/28 11:25:00;;;;;;;1999.90;999.90;;;21.90;45.80;;;;;;5058151;28;20053;-73
2021/04/28 11:27:46;;;;;;;1999.90;999.90;;;21.90;44.10;;;;;;5050281;28;20128;-72
2021/04/28 11:30:21;;;;;;;1999.90;999.90;;;21.90;45.40;;;;;;5056689;28;20095;-73
2021/04/28 11:33:05;;;;;;;1999.90;999.90;;;21.90;45.90;;;;;;5056654;28;20465;-73
2021/04/28 11:35:32;;;;;;;1999.90;999.90;;;21.90;44.10;;;;;;5063217;28;20472;-73
2021/04/28 11:38:16;;;;;;;1999.90;999.90;;;21.80;43.50;;;;;;5057405;28;20103;-73
2021/04/28 11:40:55;;;;;;;1999.90;999.90;;;21.80;41.60;;;;;;5059283;28;20524;-73
2021/04/28 11:43:26;;;;;;;1999.90;999.90;;;21.80;41.20;;;;;;5056351;28;20088;-73
2021/04/28 11:45:54;;;;;;;1999.90;999.90;;;22.00;41.00;;;;;;5068245;28;20059;-73
2021/04/28 11:48:22;;;;;;;1999.90;999.90;;;22.20;42.00;;;;;;5052292;28;20400;-73
2021/04/28 11:51:00;;;;;;;1999.90;999.90;;;22.40;43.00;;;;;;5074752;28;20468;-73
2021/04/28 11:53:28;;;;;;;1999.90;999.90;;;22.60;42.60;;;;;;5060860;28;20049;-73
2021/04/28 11:55:55;;;;;;;1999.90;999.90;;;22.60;43.70;;;;;;5055943;28;20041;-73
2021/04/28 11:58:31;;;;;;;1999.90;999.90;;;22.60;43.60;;;;;;5054371;28;20045;-73
2021/04/28 12:01:06;;;;;;;1999.90;999.90;;;22.60;42.90;;;;;;5062432;28;20056;-73
2021/04/28 12:04:11;;;;;;;1999.90;999.90;;;22.70;44.90;;;;;;5053162;28;20491;-73
2021/04/28 12:06:45;;;;;;;1999.90;999.90;;;22.80;45.30;;;;;;5058669;28;20055;-72
2021/04/28 12:09:33;;;;;;;1999.90;999.90;;;22.90;44.40;;;;;;5060785;28;20049;-73
2021/04/28 12:12:10;;;;;;;1999.90;999.90;;;23.10;43.70;;;;;;5064160;28;20088;-73
2021/04/28 12:14:39;;;;;;;1999.90;999.90;;;23.40;43.30;;;;;;5065686;28;20388;-73
2021/04/28 12:17:05;;;;;;;;;;;23.50;42.60;;;;;;5062721;28;20460;-73